KCAD

Wexford County Airport

Cadillac, Michigan, USA
METAR KCAD 221415Z AUTO 24003KT 10SM CLR 03/02 A2999 RMK AO2 T00320020
Observed Flight Rules
Oct-22 @ 14:15 UTC (5 minutes ago) Visual Flight Rules
Wind Visibility Clouds
240° at 3 knots 10 miles
  • Clear skies
Temperatures Readings
Current 3°C / 37°F
Dewpoint 2°C / 36°F
Humidity 93%
Altimeter 29.99" Hg
Pressure 1016 hPa
Elevation 398
METAR KCAD 221415Z AUTO 24003KT 10SM CLR 03/02 A2999 RMK AO2 T00320020
Observed Flight Rules
Oct-22 @ 14:15 UTC
(5 minutes ago)
VFR
Wind Visibility
240° at 3 knots 10 miles
Clouds
  • Clear skies
Temperature Dewpoint
3°C / 37°F 2°C / 36°F
Humidity Altimeter Pressure
93% 29.99" Hg 1016 hPa